Terminal Aerodrome Forecast
Issued by NWS

Home | Current Version | Previous Version | Text Only | Print | Product List | Glossary On
Versions: 1 2 3 4 5 6 7 8 9 10 11 12 13 14 15 16 17 18 19 20 21 22
209
FTUS43 KIND 142151 AAC
TAFBMG
TAF AMD
KBMG 142151Z 1422/1518 12010KT 1/2SM SN FZFG OVC010
     FM150000 14010KT 2SM -SHSN BR OVC009
     FM150400 15007KT 4SM -SHSN BR OVC012
     FM150800 19005KT 6SM BR VCSH OVC015=

USA.gov is the U.S. government's official web portal to all federal, state and local government web resources and services.